Time;durP1;ratioP1;P1;durP2;ratioP2;P2;SDS_P1;SDS_P2;PMS_P1;PMS_P2;Temp;Humidity;BMP_temperature;BMP_pressure;BME280_temperature;BME280_humidity;BME280_pressure;Samples;Min_cycle;Max_cycle;Signal;HPM_P1;HPM_P2
2022/02/22 00:02:16;;;;;;;20.75;4.47;;;;;;;;;;5070614;28;20201;-80
2022/02/22 00:04:45;;;;;;;20.05;4.25;;;;;;;;;;5065386;28;20219;-80
2022/02/22 00:07:12;;;;;;;17.35;4.00;;;;;;;;;;5054798;28;20195;-79
2022/02/22 00:09:40;;;;;;;16.90;4.35;;;;;;;;;;5052548;28;20208;-79
2022/02/22 00:12:08;;;;;;;22.30;4.97;;;;;;;;;;5051176;28;20208;-79
2022/02/22 00:14:36;;;;;;;18.20;4.60;;;;;;;;;;5063667;28;20722;-78
2022/02/22 00:17:04;;;;;;;24.55;4.45;;;;;;;;;;5065460;28;20202;-79
2022/02/22 00:19:31;;;;;;;19.90;4.10;;;;;;;;;;5056919;28;20209;-80
2022/02/22 00:21:58;;;;;;;17.02;4.28;;;;;;;;;;5064548;28;20617;-78
2022/02/22 00:24:25;;;;;;;20.27;4.97;;;;;;;;;;5069997;28;20288;-78
2022/02/22 00:26:53;;;;;;;14.95;4.40;;;;;;;;;;5068327;28;20673;-80
2022/02/22 00:29:20;;;;;;;18.27;4.28;;;;;;;;;;5064391;28;20222;-78
2022/02/22 00:31:48;;;;;;;23.60;4.55;;;;;;;;;;5064897;28;20651;-78
2022/02/22 00:34:15;;;;;;;17.02;4.63;;;;;;;;;;5067088;28;20412;-79
2022/02/22 00:36:43;;;;;;;25.50;4.80;;;;;;;;;;5065103;28;20300;-79
2022/02/22 00:39:11;;;;;;;18.63;4.40;;;;;;;;;;5049932;28;20252;-79
2022/02/22 00:41:38;;;;;;;11.90;3.72;;;;;;;;;;5049950;28;20205;-80
2022/02/22 00:44:06;;;;;;;15.43;4.07;;;;;;;;;;5066113;28;20581;-79
2022/02/22 00:46:34;;;;;;;18.30;3.28;;;;;;;;;;5051833;28;20654;-81
2022/02/22 00:49:02;;;;;;;16.45;3.85;;;;;;;;;;5067148;28;20210;-80
2022/02/22 00:51:29;;;;;;;14.02;4.07;;;;;;;;;;5066053;28;20202;-78
2022/02/22 00:53:56;;;;;;;17.45;4.53;;;;;;;;;;5064143;28;20190;-78
2022/02/22 00:56:24;;;;;;;24.73;3.65;;;;;;;;;;5068344;28;20655;-79
2022/02/22 00:58:51;;;;;;;15.82;4.13;;;;;;;;;;5069398;28;20201;-80
2022/02/22 01:01:18;;;;;;;20.77;4.45;;;;;;;;;;5065844;28;20194;-78
2022/02/22 01:03:45;;;;;;;18.33;4.00;;;;;;;;;;5067582;28;20682;-79
2022/02/22 01:06:14;;;;;;;13.32;3.30;;;;;;;;;;5059188;28;20356;-79
2022/02/22 01:08:41;;;;;;;24.42;4.60;;;;;;;;;;5066256;28;20222;-79
2022/02/22 01:11:08;;;;;;;17.20;3.80;;;;;;;;;;5066102;28;20663;-78
2022/02/22 01:13:36;;;;;;;13.23;4.25;;;;;;;;;;5068929;28;20194;-78
2022/02/22 01:16:04;;;;;;;15.70;4.40;;;;;;;;;;5068325;28;20225;-79
2022/02/22 01:18:31;;;;;;;22.42;5.22;;;;;;;;;;5067402;28;20201;-80
2022/02/22 01:20:59;;;;;;;20.10;4.90;;;;;;;;;;5069966;28;20526;-80
2022/02/22 01:23:27;;;;;;;18.95;5.25;;;;;;;;;;5064498;28;20259;-79
2022/02/22 01:25:56;;;;;;;14.30;3.47;;;;;;;;;;5066617;28;20221;-79
2022/02/22 01:28:23;;;;;;;20.00;4.35;;;;;;;;;;5064372;28;20291;-78
2022/02/22 01:30:53;;;;;;;20.67;4.35;;;;;;;;;;5069985;28;20536;-79
2022/02/22 01:33:20;;;;;;;18.23;4.65;;;;;;;;;;5072547;28;20651;-78
2022/02/22 01:35:47;;;;;;;39.88;5.75;;;;;;;;;;5070814;28;20221;-79
2022/02/22 01:38:14;;;;;;;15.75;4.20;;;;;;;;;;5064249;28;20191;-78
2022/02/22 01:40:43;;;;;;;13.18;4.30;;;;;;;;;;5068223;28;20260;-79
2022/02/22 01:43:10;;;;;;;16.52;3.60;;;;;;;;;;5070347;28;20220;-78
2022/02/22 01:45:37;;;;;;;21.52;6.18;;;;;;;;;;5069725;28;20218;-78
2022/02/22 01:48:05;;;;;;;18.63;5.00;;;;;;;;;;5070956;28;20214;-78
2022/02/22 01:50:32;;;;;;;19.50;4.57;;;;;;;;;;5071722;28;20202;-80
2022/02/22 01:52:59;;;;;;;19.73;4.85;;;;;;;;;;5073432;28;20190;-78
2022/02/22 01:55:26;;;;;;;13.63;4.80;;;;;;;;;;5067558;28;20527;-79
2022/02/22 01:57:55;;;;;;;30.02;6.00;;;;;;;;;;5074987;28;20208;-79
2022/02/22 02:00:22;;;;;;;24.08;5.63;;;;;;;;;;5074587;28;20284;-79
2022/02/22 02:02:51;;;;;;;21.75;6.45;;;;;;;;;;5069865;28;20198;-80
2022/02/22 02:05:18;;;;;;;23.38;4.70;;;;;;;;;;5070056;28;20218;-80
2022/02/22 02:08:02;;;;;;;19.27;4.80;;;;;;;;;;5071022;28;20206;-78
2022/02/22 02:10:31;;;;;;;23.30;4.78;;;;;;;;;;5072541;28;20536;-78
2022/02/22 02:13:00;;;;;;;21.80;4.57;;;;;;;;;;5069992;28;20200;-79
2022/02/22 02:15:27;;;;;;;23.00;5.72;;;;;;;;;;5065925;28;20220;-79
2022/02/22 02:17:54;;;;;;;21.42;4.32;;;;;;;;;;5066246;28;20199;-79
2022/02/22 02:20:21;;;;;;;17.40;4.97;;;;;;;;;;5059911;28;20187;-80
2022/02/22 02:22:50;;;;;;;26.08;4.85;;;;;;;;;;5068460;28;20653;-78
2022/02/22 02:25:17;;;;;;;23.00;5.32;;;;;;;;;;5070959;28;20707;-78
2022/02/22 02:27:44;;;;;;;17.75;5.20;;;;;;;;;;5070357;28;20198;-79
2022/02/22 02:30:12;;;;;;;21.27;4.80;;;;;;;;;;5071741;28;20193;-79
2022/02/22 02:32:39;;;;;;;18.30;4.35;;;;;;;;;;5071858;28;20554;-79
2022/02/22 02:35:07;;;;;;;16.10;4.65;;;;;;;;;;5071287;28;20226;-79
2022/02/22 02:37:35;;;;;;;23.75;4.95;;;;;;;;;;5054730;28;20244;-79
2022/02/22 02:40:04;;;;;;;18.38;4.70;;;;;;;;;;5069798;28;20194;-79
2022/02/22 02:42:33;;;;;;;22.75;6.20;;;;;;;;;;5069937;28;20194;-79
2022/02/22 02:45:00;;;;;;;21.88;6.13;;;;;;;;;;5069727;28;20283;-79
2022/02/22 02:47:27;;;;;;;46.95;6.68;;;;;;;;;;5060711;28;20196;-80
2022/02/22 02:49:55;;;;;;;23.92;5.63;;;;;;;;;;5051562;28;20218;-79
2022/02/22 02:52:22;;;;;;;22.20;4.80;;;;;;;;;;5050029;28;20205;-80
2022/02/22 02:54:49;;;;;;;27.65;6.90;;;;;;;;;;5055008;28;20233;-81
2022/02/22 02:57:17;;;;;;;24.08;5.28;;;;;;;;;;5067120;28;20706;-78
2022/02/22 02:59:46;;;;;;;31.85;7.32;;;;;;;;;;5066062;28;20190;-78
2022/02/22 03:02:13;;;;;;;22.95;5.30;;;;;;;;;;5067749;28;20210;-79
2022/02/22 03:04:41;;;;;;;24.17;4.35;;;;;;;;;;5051601;28;20244;-79
2022/02/22 03:07:08;;;;;;;20.17;4.10;;;;;;;;;;5068152;28;20198;-79
2022/02/22 03:09:35;;;;;;;18.90;4.13;;;;;;;;;;5071334;28;20222;-79
2022/02/22 03:12:02;;;;;;;19.98;5.30;;;;;;;;;;5070002;28;20194;-80
2022/02/22 03:14:30;;;;;;;24.75;4.75;;;;;;;;;;5068580;28;20210;-80
2022/02/22 03:16:58;;;;;;;26.77;4.93;;;;;;;;;;5068384;28;20202;-78
2022/02/22 03:19:25;;;;;;;18.98;4.40;;;;;;;;;;5070530;28;20198;-78
2022/02/22 03:21:52;;;;;;;16.83;4.40;;;;;;;;;;5055688;28;20199;-80
2022/02/22 03:24:19;;;;;;;27.50;6.53;;;;;;;;;;5051205;28;20222;-79
2022/02/22 03:26:47;;;;;;;18.27;4.95;;;;;;;;;;5058738;28;20198;-80
2022/02/22 03:29:14;;;;;;;16.80;4.10;;;;;;;;;;5067291;28;20243;-80
2022/02/22 03:31:42;;;;;;;18.55;4.28;;;;;;;;;;5055209;28;20224;-79
2022/02/22 03:34:09;;;;;;;18.75;4.47;;;;;;;;;;5063782;28;20198;-80
2022/02/22 03:36:37;;;;;;;26.02;5.10;;;;;;;;;;5064494;28;20554;-80
2022/02/22 03:39:04;;;;;;;25.23;4.30;;;;;;;;;;5068598;28;20276;-80
2022/02/22 03:41:32;;;;;;;16.98;4.38;;;;;;;;;;5069188;28;20190;-79
2022/02/22 03:43:59;;;;;;;26.45;5.70;;;;;;;;;;5070556;28;20596;-80
2022/02/22 03:46:27;;;;;;;17.10;5.25;;;;;;;;;;5069275;28;20194;-79
2022/02/22 03:48:55;;;;;;;18.55;4.70;;;;;;;;;;5066667;28;20321;-80
2022/02/22 03:51:22;;;;;;;17.55;4.70;;;;;;;;;;5052089;28;20280;-79
2022/02/22 03:53:49;;;;;;;22.38;4.65;;;;;;;;;;5064321;28;20201;-80
2022/02/22 03:56:17;;;;;;;25.60;5.85;;;;;;;;;;5067393;28;20198;-79
2022/02/22 03:58:44;;;;;;;26.35;5.47;;;;;;;;;;5065102;28;20269;-78
2022/02/22 04:01:11;;;;;;;23.05;4.85;;;;;;;;;;5066903;28;20202;-79
2022/02/22 04:03:38;;;;;;;20.55;4.68;;;;;;;;;;5067744;28;20206;-81
2022/02/22 04:06:07;;;;;;;18.02;4.53;;;;;;;;;;5068434;28;20310;-80
2022/02/22 04:08:34;;;;;;;21.63;5.60;;;;;;;;;;5064451;28;20222;-80
2022/02/22 04:11:01;;;;;;;15.25;3.92;;;;;;;;;;5051866;28;20210;-80
2022/02/22 04:13:28;;;;;;;16.55;4.00;;;;;;;;;;5052422;28;20202;-79
2022/02/22 04:15:55;;;;;;;16.13;4.30;;;;;;;;;;5060628;28;20263;-81
2022/02/22 04:18:23;;;;;;;17.80;4.38;;;;;;;;;;5067588;28;20190;-80
2022/02/22 04:20:50;;;;;;;18.40;4.30;;;;;;;;;;5066809;28;20213;-78
2022/02/22 04:23:18;;;;;;;27.52;5.30;;;;;;;;;;5063731;28;20551;-80
2022/02/22 04:25:45;;;;;;;24.40;4.65;;;;;;;;;;5049624;28;20222;-81
2022/02/22 04:31:08;;;;;;;26.90;6.55;;;;;;;;;;4988076;28;20208;-80
2022/02/22 04:33:37;;;;;;;23.95;4.38;;;;;;;;;;4984101;28;20201;-80
2022/02/22 04:36:04;;;;;;;20.25;4.45;;;;;;;;;;4983993;28;20220;-78
2022/02/22 04:38:32;;;;;;;24.15;4.53;;;;;;;;;;4987820;28;20211;-81
2022/02/22 04:41:00;;;;;;;24.35;5.38;;;;;;;;;;4985254;28;20200;-78
2022/02/22 04:43:27;;;;;;;20.73;4.10;;;;;;;;;;4987904;28;20773;-79
2022/02/22 04:45:54;;;;;;;20.15;4.15;;;;;;;;;;4984423;28;20253;-81
2022/02/22 04:48:21;;;;;;;16.70;3.95;;;;;;;;;;4987742;28;20197;-79
2022/02/22 04:50:48;;;;;;;28.27;5.22;;;;;;;;;;4987098;28;20221;-79
2022/02/22 04:53:15;;;;;;;14.45;4.90;;;;;;;;;;4982740;28;20204;-79
2022/02/22 04:55:44;;;;;;;19.77;3.95;;;;;;;;;;4986664;28;20557;-81
2022/02/22 04:58:11;;;;;;;15.50;4.38;;;;;;;;;;4980016;28;20229;-79
2022/02/22 05:00:38;;;;;;;19.75;4.32;;;;;;;;;;4969653;28;20197;-80
2022/02/22 05:03:05;;;;;;;21.63;4.13;;;;;;;;;;5057317;28;20559;-80
2022/02/22 05:05:33;;;;;;;19.05;3.83;;;;;;;;;;5063883;28;20229;-79
2022/02/22 05:08:00;;;;;;;24.80;4.25;;;;;;;;;;5062595;28;20202;-79
2022/02/22 05:10:27;;;;;;;16.15;3.97;;;;;;;;;;5070859;28;20244;-79
2022/02/22 05:12:55;;;;;;;23.08;4.05;;;;;;;;;;5069513;28;20200;-80
2022/02/22 05:15:23;;;;;;;29.00;5.13;;;;;;;;;;5072919;28;20225;-80
2022/02/22 05:17:50;;;;;;;24.25;5.43;;;;;;;;;;5071935;28;20655;-80
2022/02/22 05:20:17;;;;;;;23.00;4.93;;;;;;;;;;5073072;28;20198;-81
2022/02/22 05:22:46;;;;;;;27.40;4.72;;;;;;;;;;5053731;28;20586;-80
2022/02/22 05:25:14;;;;;;;25.13;4.85;;;;;;;;;;5053686;28;20317;-80
2022/02/22 05:27:42;;;;;;;20.13;4.43;;;;;;;;;;5055276;28;20655;-81
2022/02/22 05:30:12;;;;;;;26.40;5.95;;;;;;;;;;5058436;28;20228;-79
2022/02/22 05:32:39;;;;;;;23.73;4.93;;;;;;;;;;5070883;28;20211;-80
2022/02/22 05:35:09;;;;;;;29.08;4.05;;;;;;;;;;5068778;28;20220;-79
2022/02/22 05:37:36;;;;;;;20.70;5.75;;;;;;;;;;5072992;28;20206;-80
2022/02/22 05:40:04;;;;;;;21.92;5.03;;;;;;;;;;5068834;28;20679;-81
2022/02/22 05:42:33;;;;;;;27.90;5.03;;;;;;;;;;5072511;28;20662;-77
2022/02/22 05:45:01;;;;;;;18.05;4.45;;;;;;;;;;5072247;28;20667;-80
2022/02/22 05:47:29;;;;;;;17.15;4.38;;;;;;;;;;5059220;28;20673;-79
2022/02/22 05:49:56;;;;;;;14.02;3.63;;;;;;;;;;5053452;28;20229;-79
2022/02/22 05:52:24;;;;;;;27.80;5.43;;;;;;;;;;5067221;28;20365;-80
2022/02/22 05:54:52;;;;;;;17.30;4.60;;;;;;;;;;5067857;28;20218;-80
2022/02/22 05:57:19;;;;;;;27.00;4.80;;;;;;;;;;5071348;28;20562;-77
2022/02/22 05:59:49;;;;;;;25.33;5.40;;;;;;;;;;5070694;28;20205;-79
2022/02/22 06:02:16;;;;;;;20.52;5.30;;;;;;;;;;5070340;28;20202;-79
2022/02/22 06:04:44;;;;;;;26.95;5.35;;;;;;;;;;5070363;28;20222;-78
2022/02/22 06:07:12;;;;;;;13.10;4.13;;;;;;;;;;5072583;28;20198;-78
2022/02/22 06:09:39;;;;;;;30.35;7.00;;;;;;;;;;5066501;28;20222;-79
2022/02/22 06:12:07;;;;;;;16.40;5.20;;;;;;;;;;5069238;28;20198;-79
2022/02/22 06:14:34;;;;;;;22.27;6.00;;;;;;;;;;5070074;28;20224;-79
2022/02/22 06:17:01;;;;;;;23.67;6.47;;;;;;;;;;5072256;28;20205;-78
2022/02/22 06:19:28;;;;;;;16.33;5.25;;;;;;;;;;5051467;28;20672;-77
2022/02/22 06:21:57;;;;;;;24.48;6.20;;;;;;;;;;5052645;28;20198;-78
2022/02/22 06:24:24;;;;;;;31.67;5.90;;;;;;;;;;5053885;28;20229;-79
2022/02/22 06:26:51;;;;;;;30.58;5.07;;;;;;;;;;5060318;28;20194;-79
2022/02/22 06:29:18;;;;;;;25.65;5.60;;;;;;;;;;5068946;28;20224;-78
2022/02/22 06:31:45;;;;;;;23.90;5.95;;;;;;;;;;5070515;28;20548;-78
2022/02/22 06:34:12;;;;;;;24.65;9.07;;;;;;;;;;5072449;28;20576;-78
2022/02/22 06:36:39;;;;;;;21.80;6.03;;;;;;;;;;5071887;28;20198;-81
2022/02/22 06:39:08;;;;;;;28.55;7.70;;;;;;;;;;5072135;28;20224;-80
2022/02/22 06:41:35;;;;;;;26.90;8.02;;;;;;;;;;5072423;28;20198;-79
2022/02/22 06:44:03;;;;;;;28.88;8.07;;;;;;;;;;5068183;28;20285;-77
2022/02/22 06:46:30;;;;;;;25.77;6.70;;;;;;;;;;5068850;28;20190;-78
2022/02/22 06:48:57;;;;;;;22.85;6.20;;;;;;;;;;5069364;28;20201;-79
2022/02/22 06:51:24;;;;;;;23.20;6.03;;;;;;;;;;5071727;28;20233;-78
2022/02/22 06:53:52;;;;;;;25.75;6.03;;;;;;;;;;5068435;28;20201;-80
2022/02/22 06:56:20;;;;;;;16.98;5.45;;;;;;;;;;5068375;28;20293;-79
2022/02/22 06:58:49;;;;;;;31.92;7.28;;;;;;;;;;5050926;28;20257;-79
2022/02/22 07:01:16;;;;;;;29.80;6.35;;;;;;;;;;5067882;28;20210;-78
2022/02/22 07:03:43;;;;;;;16.88;5.53;;;;;;;;;;5065641;28;20655;-77
2022/02/22 07:06:11;;;;;;;21.00;5.88;;;;;;;;;;5069000;28;20224;-79
2022/02/22 07:08:38;;;;;;;24.10;6.78;;;;;;;;;;5070921;28;20288;-77
2022/02/22 07:11:05;;;;;;;22.95;6.03;;;;;;;;;;5069853;28;20218;-81
2022/02/22 07:13:32;;;;;;;13.77;5.57;;;;;;;;;;5070040;28;20202;-77
2022/02/22 07:16:01;;;;;;;18.95;5.45;;;;;;;;;;5071250;28;20572;-83
2022/02/22 07:18:28;;;;;;;17.13;4.65;;;;;;;;;;5068754;28;20201;-78
2022/02/22 07:20:55;;;;;;;17.42;4.50;;;;;;;;;;5067193;28;20190;-79
2022/02/22 07:23:22;;;;;;;24.42;4.80;;;;;;;;;;5069389;28;20672;-81
2022/02/22 07:25:49;;;;;;;17.55;4.18;;;;;;;;;;5070813;28;20214;-82
2022/02/22 07:28:16;;;;;;;16.17;4.45;;;;;;;;;;5069847;28;20198;-81
2022/02/22 07:30:44;;;;;;;16.10;3.83;;;;;;;;;;5068446;28;20567;-80
2022/02/22 07:33:12;;;;;;;15.63;4.80;;;;;;;;;;5071865;28;20202;-78
2022/02/22 07:35:39;;;;;;;15.38;3.47;;;;;;;;;;5058110;28;20222;-79
2022/02/22 07:38:07;;;;;;;12.50;3.97;;;;;;;;;;5053175;28;20209;-77
2022/02/22 07:40:34;;;;;;;20.83;4.10;;;;;;;;;;5060378;28;20197;-77
2022/02/22 07:43:01;;;;;;;15.02;4.47;;;;;;;;;;5068200;28;20208;-79
2022/02/22 07:45:29;;;;;;;24.65;5.47;;;;;;;;;;5069252;28;20217;-77
2022/02/22 07:47:56;;;;;;;12.63;4.57;;;;;;;;;;5061438;28;20647;-77
2022/02/22 07:50:25;;;;;;;5.70;3.38;;;;;;;;;;5075010;28;20224;-80
2022/02/22 07:52:52;;;;;;;16.90;5.45;;;;;;;;;;5070857;28;20587;-81
2022/02/22 07:55:19;;;;;;;11.68;4.80;;;;;;;;;;5070839;28;20581;-79
2022/02/22 07:57:46;;;;;;;17.13;6.05;;;;;;;;;;5064911;28;20198;-79
2022/02/22 08:00:14;;;;;;;19.58;6.63;;;;;;;;;;5069405;28;20277;-78
2022/02/22 08:02:41;;;;;;;21.20;8.05;;;;;;;;;;5059126;28;20651;-79
2022/02/22 08:05:09;;;;;;;17.08;7.15;;;;;;;;;;5067307;28;20218;-80
2022/02/22 08:07:37;;;;;;;19.17;7.30;;;;;;;;;;5066684;28;20209;-78
2022/02/22 08:10:05;;;;;;;15.63;6.45;;;;;;;;;;5069470;28;20694;-83
2022/02/22 08:12:32;;;;;;;18.63;7.00;;;;;;;;;;5068122;28;20207;-79
2022/02/22 08:14:59;;;;;;;18.65;6.40;;;;;;;;;;5050341;28;20225;-77
2022/02/22 08:17:27;;;;;;;16.90;5.72;;;;;;;;;;5067368;28;20194;-79
2022/02/22 08:19:54;;;;;;;17.38;6.40;;;;;;;;;;5068745;28;20738;-80
2022/02/22 08:22:21;;;;;;;15.70;5.07;;;;;;;;;;5066007;28;20589;-79
2022/02/22 08:24:49;;;;;;;15.93;6.45;;;;;;;;;;5060099;28;20218;-81
2022/02/22 08:27:19;;;;;;;10.93;4.43;;;;;;;;;;5059041;28;20190;-78
2022/02/22 08:29:46;;;;;;;15.95;4.80;;;;;;;;;;5049816;28;20198;-78
2022/02/22 08:32:13;;;;;;;13.32;5.32;;;;;;;;;;5049038;28;20199;-77
2022/02/22 08:34:40;;;;;;;20.30;5.68;;;;;;;;;;5049357;28;20241;-78
2022/02/22 08:37:08;;;;;;;14.23;4.38;;;;;;;;;;5062411;28;20572;-77
2022/02/22 08:39:36;;;;;;;11.80;5.35;;;;;;;;;;5067477;28;20194;-79
2022/02/22 08:42:09;;;;;;;12.90;5.57;;;;;;;;;;5069074;28;20206;-81
2022/02/22 08:44:36;;;;;;;13.43;5.17;;;;;;;;;;5074172;28;20214;-78
2022/02/22 08:47:04;;;;;;;15.48;4.32;;;;;;;;;;5072787;28;20452;-80
2022/02/22 08:49:31;;;;;;;21.07;7.47;;;;;;;;;;5064654;28;20217;-81
2022/02/22 08:51:58;;;;;;;12.70;5.30;;;;;;;;;;5060888;28;20475;-80
2022/02/22 08:54:25;;;;;;;12.90;4.10;;;;;;;;;;5069603;28;20965;-77
2022/02/22 08:56:52;;;;;;;14.23;4.50;;;;;;;;;;5066051;28;20444;-77
2022/02/22 08:59:21;;;;;;;12.03;5.10;;;;;;;;;;5071882;28;20472;-78
2022/02/22 09:01:48;;;;;;;18.47;4.70;;;;;;;;;;5073082;28;20439;-79
2022/02/22 09:04:15;;;;;;;10.27;4.90;;;;;;;;;;5062811;28;20456;-76
2022/02/22 09:06:42;;;;;;;9.93;4.40;;;;;;;;;;5052349;28;20437;-79
2022/02/22 09:09:09;;;;;;;10.47;5.47;;;;;;;;;;5051908;28;20443;-77
2022/02/22 09:11:36;;;;;;;14.60;5.83;;;;;;;;;;5058851;28;20483;-79
2022/02/22 09:14:06;;;;;;;11.67;5.67;;;;;;;;;;5070862;28;20440;-77
2022/02/22 09:16:34;;;;;;;14.67;5.90;;;;;;;;;;5071763;28;20451;-79
2022/02/22 09:19:01;;;;;;;8.70;4.67;;;;;;;;;;5073744;28;20436;-77
2022/02/22 09:21:29;;;;;;;12.17;5.30;;;;;;;;;;5059608;28;20449;-78
2022/02/22 09:23:56;;;;;;;9.40;5.00;;;;;;;;;;5053484;28;20479;-79
2022/02/22 09:26:23;;;;;;;11.83;5.00;;;;;;;;;;5054183;28;20820;-78
2022/02/22 09:28:51;;;;;;;14.03;5.87;;;;;;;;;;5073400;28;20786;-78
2022/02/22 09:31:19;;;;;;;14.03;5.40;;;;;;;;;;5075154;28;20640;-81
2022/02/22 09:33:47;;;;;;;9.00;4.20;;;;;;;;;;5073251;28;20445;-79
2022/02/22 09:36:14;;;;;;;8.30;4.37;;;;;;;;;;5068117;28;20464;-78
2022/02/22 09:38:41;;;;;;;14.70;4.30;;;;;;;;;;5072307;28;20435;-77
2022/02/22 09:41:09;;;;;;;13.07;4.13;;;;;;;;;;5073176;28;20444;-79
2022/02/22 09:43:36;;;;;;;7.77;3.80;;;;;;;;;;5073209;28;20451;-79
2022/02/22 09:46:09;;;;;;;9.57;4.23;;;;;;;;;;5071246;28;20480;-80
2022/02/22 09:48:36;;;;;;;13.67;3.97;;;;;;;;;;5072880;28;20444;-78
2022/02/22 09:51:05;;;;;;;7.37;3.70;;;;;;;;;;5071045;28;20476;-79
2022/02/22 09:53:32;;;;;;;12.70;3.40;;;;;;;;;;5071071;28;20454;-77
2022/02/22 09:55:59;;;;;;;14.90;4.10;;;;;;;;;;5068112;28;20487;-77
2022/02/22 09:58:27;;;;;;;9.00;3.20;;;;;;;;;;5063192;28;21202;-77
2022/02/22 10:01:01;;;;;;;6.60;3.17;;;;;;;;;;5065313;28;20468;-77
2022/02/22 10:03:29;;;;;;;6.93;3.60;;;;;;;;;;5057536;28;20962;-77
2022/02/22 10:05:57;;;;;;;13.63;3.63;;;;;;;;;;5067494;28;20482;-79
2022/02/22 10:08:27;;;;;;;6.33;3.00;;;;;;;;;;5068869;28;20441;-76
2022/02/22 10:11:04;;;;;;;6.60;3.27;;;;;;;;;;5068519;28;20480;-79
2022/02/22 10:13:31;;;;;;;7.73;3.03;;;;;;;;;;5064274;28;20558;-78
2022/02/22 10:15:59;;;;;;;5.07;2.60;;;;;;;;;;5057549;28;20470;-84
2022/02/22 10:18:26;;;;;;;9.80;3.30;;;;;;;;;;5070572;28;20436;-81
2022/02/22 10:20:54;;;;;;;10.60;3.50;;;;;;;;;;5070468;28;21146;-80
2022/02/22 10:23:30;;;;;;;12.00;4.23;;;;;;;;;;5071742;28;20486;-78
2022/02/22 10:25:58;;;;;;;8.00;2.73;;;;;;;;;;5054598;28;20472;-78
2022/02/22 10:28:26;;;;;;;5.47;2.80;;;;;;;;;;5054177;28;20437;-77
2022/02/22 10:30:53;;;;;;;4.53;2.87;;;;;;;;;;5052555;28;20484;-77
2022/02/22 10:33:21;;;;;;;6.67;3.40;;;;;;;;;;5064731;28;20452;-79
2022/02/22 10:35:51;;;;;;;9.53;2.90;;;;;;;;;;5067446;28;20785;-76
2022/02/22 10:38:20;;;;;;;5.40;3.00;;;;;;;;;;5060024;28;20928;-78
2022/02/22 10:40:58;;;;;;;8.63;3.10;;;;;;;;;;5059634;28;20933;-78
2022/02/22 10:43:26;;;;;;;5.77;3.00;;;;;;;;;;5049211;28;20447;-76
2022/02/22 10:45:54;;;;;;;10.63;3.07;;;;;;;;;;5064580;28;20465;-79
2022/02/22 10:48:36;;;;;;;6.53;3.13;;;;;;;;;;5048669;28;20894;-78
2022/02/22 10:51:05;;;;;;;5.67;2.43;;;;;;;;;;5049724;28;20495;-81
2022/02/22 10:53:34;;;;;;;6.77;2.97;;;;;;;;;;5050917;28;20794;-76
2022/02/22 10:56:04;;;;;;;7.37;2.67;;;;;;;;;;5061502;28;20486;-78
2022/02/22 10:58:32;;;;;;;6.73;2.70;;;;;;;;;;5066520;28;20454;-77
2022/02/22 11:00:59;;;;;;;10.30;3.13;;;;;;;;;;5067325;28;20451;-80
2022/02/22 11:03:26;;;;;;;14.73;3.57;;;;;;;;;;5048492;28;20757;-83
2022/02/22 11:05:54;;;;;;;6.23;2.83;;;;;;;;;;5047189;28;20475;-78
2022/02/22 11:08:30;;;;;;;4.27;2.87;;;;;;;;;;5048311;28;20922;-78
2022/02/22 11:10:59;;;;;;;9.80;3.10;;;;;;;;;;5047671;28;20484;-78
2022/02/22 11:13:29;;;;;;;7.50;3.10;;;;;;;;;;5056040;28;20992;-78
2022/02/22 11:15:56;;;;;;;7.50;2.70;;;;;;;;;;5063117;28;20646;-78
2022/02/22 11:18:24;;;;;;;8.40;3.03;;;;;;;;;;5065175;28;20443;-78
2022/02/22 11:20:52;;;;;;;7.03;2.90;;;;;;;;;;5064106;28;20470;-78
2022/02/22 11:23:27;;;;;;;7.90;3.00;;;;;;;;;;5067782;28;20440;-78
2022/02/22 11:26:05;;;;;;;5.87;2.70;;;;;;;;;;5067075;28;20470;-78
2022/02/22 11:28:36;;;;;;;7.53;3.20;;;;;;;;;;5067361;28;20444;-78
2022/02/22 11:31:05;;;;;;;17.73;3.57;;;;;;;;;;5055301;28;20582;-78
2022/02/22 11:33:38;;;;;;;8.93;2.80;;;;;;;;;;5062497;28;20444;-78
2022/02/22 11:36:08;;;;;;;16.30;3.63;;;;;;;;;;5046996;28;20543;-77
2022/02/22 11:38:40;;;;;;;11.67;3.57;;;;;;;;;;5046442;28;20445;-78
2022/02/22 11:41:14;;;;;;;9.10;3.17;;;;;;;;;;5062519;28;20807;-77
2022/02/22 11:43:51;;;;;;;13.27;3.27;;;;;;;;;;5046053;28;20912;-78
2022/02/22 11:46:18;;;;;;;9.73;3.37;;;;;;;;;;5060486;28;20484;-80
2022/02/22 11:48:47;;;;;;;10.63;3.87;;;;;;;;;;5064572;28;20440;-79
2022/02/22 11:51:15;;;;;;;8.53;2.80;;;;;;;;;;5065199;28;20526;-78
2022/02/22 11:53:44;;;;;;;8.70;3.17;;;;;;;;;;5047580;28;20461;-78
2022/02/22 11:56:21;;;;;;;10.47;3.70;;;;;;;;;;5050234;28;20484;-77
2022/02/22 11:58:49;;;;;;;8.93;2.60;;;;;;;;;;5050086;28;20766;-78
2022/02/22 12:01:18;;;;;;;13.03;4.13;;;;;;;;;;5049001;28;20449;-81
2022/02/22 12:03:47;;;;;;;13.73;3.57;;;;;;;;;;5050787;28;20557;-79
2022/02/22 12:06:16;;;;;;;16.37;3.80;;;;;;;;;;5067980;28;20460;-82
2022/02/22 12:08:46;;;;;;;15.40;4.93;;;;;;;;;;5064673;28;20436;-78
2022/02/22 12:11:16;;;;;;;15.10;5.20;;;;;;;;;;5049566;28;20485;-78
2022/02/22 12:13:44;;;;;;;15.20;4.63;;;;;;;;;;5067462;28;20819;-78
2022/02/22 12:16:14;;;;;;;13.27;4.43;;;;;;;;;;5079616;28;20866;-76
2022/02/22 12:18:43;;;;;;;15.77;5.20;;;;;;;;;;5070419;28;20450;-78
2022/02/22 12:21:10;;;;;;;13.80;5.20;;;;;;;;;;5069683;28;20513;-77
2022/02/22 12:23:39;;;;;;;13.60;4.80;;;;;;;;;;5065250;28;20474;-77
2022/02/22 12:26:09;;;;;;;13.43;4.07;;;;;;;;;;5063816;28;20571;-76
2022/02/22 12:28:43;;;;;;;8.13;3.30;;;;;;;;;;5070209;28;20432;-79
2022/02/22 12:31:11;;;;;;;12.43;3.80;;;;;;;;;;5070108;28;20444;-78
2022/02/22 12:33:39;;;;;;;15.33;4.30;;;;;;;;;;5063662;28;20445;-78
2022/02/22 12:36:14;;;;;;;12.37;3.50;;;;;;;;;;5050189;28;20473;-78
2022/02/22 12:38:41;;;;;;;9.60;3.33;;;;;;;;;;5067306;28;20459;-78
2022/02/22 12:41:12;;;;;;;12.53;4.57;;;;;;;;;;5072032;28;20440;-79
2022/02/22 12:43:47;;;;;;;16.77;4.83;;;;;;;;;;5066565;28;20463;-81
2022/02/22 12:46:15;;;;;;;12.67;4.20;;;;;;;;;;5066157;28;20964;-80
2022/02/22 12:48:44;;;;;;;11.73;4.23;;;;;;;;;;5066759;28;20472;-78
2022/02/22 12:51:22;;;;;;;10.63;4.30;;;;;;;;;;5063583;28;20807;-81
2022/02/22 12:53:59;;;;;;;12.07;3.63;;;;;;;;;;5063212;28;20876;-78
2022/02/22 12:56:28;;;;;;;10.63;3.60;;;;;;;;;;5050049;28;20457;-79
2022/02/22 12:58:56;;;;;;;7.23;2.97;;;;;;;;;;5068041;28;20960;-79
2022/02/22 13:01:23;;;;;;;13.37;3.20;;;;;;;;;;5053576;28;20452;-79
2022/02/22 13:03:52;;;;;;;10.83;3.80;;;;;;;;;;5059767;28;20452;-82
2022/02/22 13:06:20;;;;;;;22.50;5.17;;;;;;;;;;5058040;28;20463;-81
2022/02/22 13:08:47;;;;;;;17.90;4.90;;;;;;;;;;5064803;28;20638;-79
2022/02/22 13:11:14;;;;;;;10.93;4.40;;;;;;;;;;5066458;28;20511;-81
2022/02/22 13:13:42;;;;;;;11.63;4.07;;;;;;;;;;5051855;28;20441;-80
2022/02/22 13:16:10;;;;;;;8.33;3.57;;;;;;;;;;5049891;28;20497;-82
2022/02/22 13:18:37;;;;;;;12.83;3.63;;;;;;;;;;5049341;28;20457;-82
2022/02/22 13:21:15;;;;;;;7.77;3.07;;;;;;;;;;5048914;28;20461;-81
2022/02/22 13:23:42;;;;;;;10.20;4.20;;;;;;;;;;5053505;28;20480;-78
2022/02/22 13:26:09;;;;;;;8.23;3.63;;;;;;;;;;5066578;28;20464;-79
2022/02/22 13:28:37;;;;;;;8.83;2.97;;;;;;;;;;5066797;28;20544;-79
2022/02/22 13:31:14;;;;;;;11.03;3.67;;;;;;;;;;5073055;28;20443;-81
2022/02/22 13:33:41;;;;;;;9.43;4.60;;;;;;;;;;5072602;28;20994;-80
2022/02/22 13:36:14;;;;;;;11.13;3.97;;;;;;;;;;5072782;28;20461;-81
2022/02/22 13:38:43;;;;;;;10.47;4.27;;;;;;;;;;5071283;28;20551;-78
2022/02/22 13:41:11;;;;;;;11.73;3.20;;;;;;;;;;5059180;28;20452;-79
2022/02/22 13:43:38;;;;;;;9.70;3.27;;;;;;;;;;5062028;28;20763;-81
2022/02/22 13:46:08;;;;;;;10.80;3.73;;;;;;;;;;5070898;28;20935;-81
2022/02/22 13:48:35;;;;;;;8.23;3.00;;;;;;;;;;5069572;28;20436;-80
2022/02/22 13:51:05;;;;;;;5.50;2.70;;;;;;;;;;5070883;28;20440;-80
2022/02/22 13:53:33;;;;;;;10.13;2.90;;;;;;;;;;5071305;28;21016;-77
2022/02/22 13:56:03;;;;;;;6.33;3.00;;;;;;;;;;5071118;28;20476;-79
2022/02/22 13:58:33;;;;;;;7.27;2.90;;;;;;;;;;5064291;28;20463;-80
2022/02/22 14:01:00;;;;;;;8.70;3.57;;;;;;;;;;5072193;28;20863;-78
2022/02/22 14:03:28;;;;;;;7.23;3.00;;;;;;;;;;5072056;28;20463;-78
2022/02/22 14:05:57;;;;;;;6.33;3.20;;;;;;;;;;5073428;28;20470;-81
2022/02/22 14:08:24;;;;;;;9.40;3.30;;;;;;;;;;5072625;28;20531;-78
2022/02/22 14:10:53;;;;;;;20.90;5.17;;;;;;;;;;5070405;28;20539;-79
2022/02/22 14:13:22;;;;;;;8.30;3.90;;;;;;;;;;5068985;28;20483;-80
2022/02/22 14:15:49;;;;;;;8.37;3.27;;;;;;;;;;5059788;28;20945;-79
2022/02/22 14:18:16;;;;;;;8.90;4.43;;;;;;;;;;5053928;28;20442;-81
2022/02/22 14:20:44;;;;;;;13.80;4.73;;;;;;;;;;5060247;28;20456;-77
2022/02/22 14:23:11;;;;;;;4.97;2.80;;;;;;;;;;5061688;28;20433;-81
2022/02/22 14:25:39;;;;;;;6.87;3.80;;;;;;;;;;5056744;28;20488;-81
2022/02/22 14:28:08;;;;;;;7.73;3.97;;;;;;;;;;5068632;28;20439;-79
2022/02/22 14:30:35;;;;;;;3.83;2.47;;;;;;;;;;5069774;28;20478;-79
2022/02/22 14:33:04;;;;;;;7.90;3.67;;;;;;;;;;5070673;28;20838;-79
2022/02/22 14:35:31;;;;;;;6.00;3.03;;;;;;;;;;5068435;28;20464;-78
2022/02/22 14:37:58;;;;;;;12.47;3.13;;;;;;;;;;5050841;28;20461;-80
2022/02/22 14:40:25;;;;;;;6.30;3.10;;;;;;;;;;5065080;28;20471;-79
2022/02/22 14:42:53;;;;;;;3.83;2.47;;;;;;;;;;5061163;28;20463;-79